Time;durP1;ratioP1;P1;durP2;ratioP2;P2;SDS_P1;SDS_P2;PMS_P1;PMS_P2;Temp;Humidity;BMP_temperature;BMP_pressure;BME280_temperature;BME280_humidity;BME280_pressure;Samples;Min_cycle;Max_cycle;Signal;HPM_P1;HPM_P2
2023/11/21 00:02:20;;;;;;;;;;;;;;;;;;5019476;28;89411;-61
2023/11/21 00:04:45;;;;;;;;;;;;;;;;;;5009918;28;89373;-61
2023/11/21 00:07:10;;;;;;;;;;;;;;;;;;5010439;28;89649;-61
2023/11/21 00:09:36;;;;;;;;;;;;;;;;;;5010652;28;89463;-62
2023/11/21 00:12:02;;;;;;;;;;;;;;;;;;5011394;28;90771;-61
2023/11/21 00:14:27;;;;;;;;;;;;;;;;;;5004530;28;90840;-62
2023/11/21 00:16:52;;;;;;;;;;;;;;;;;;4990982;28;89368;-62
2023/11/21 00:19:17;;;;;;;;;;;;;;;;;;5006606;28;89644;-62
2023/11/21 00:21:44;;;;;;;;;;;;;;;;;;5010625;28;89508;-62
2023/11/21 00:24:10;;;;;;;;;;;;;;;;;;5010220;28;89509;-61
2023/11/21 00:26:37;;;;;;;;;;;;;;;;;;5010699;28;89497;-61
2023/11/21 00:29:03;;;;;;;;;;;;;;;;;;5010358;28;89593;-62
2023/11/21 00:31:28;;;;;;;;;;;;;;;;;;5008968;28;89494;-62
2023/11/21 00:33:54;;;;;;;;;;;;;;;;;;4989650;28;89714;-61
2023/11/21 00:36:19;;;;;;;;;;;;;;;;;;4990007;28;88957;-61
2023/11/21 00:38:45;;;;;;;;;;;;;;;;;;5018171;28;90276;-62
2023/11/21 00:41:10;;;;;;;;;;;;;;;;;;5031924;28;90170;-61
2023/11/21 00:43:35;;;;;;;;;;;;;;;;;;5031118;28;89713;-61
2023/11/21 00:46:04;;;;;;;;;;;;;;;;;;5017908;28;90719;-62
2023/11/21 00:48:29;;;;;;;;;;;;;;;;;;5027952;28;89083;-61
2023/11/21 00:50:56;;;;;;;;;;;;;;;;;;5030517;28;89524;-61
2023/11/21 00:53:21;;;;;;;;;;;;;;;;;;5029616;27;90324;-62
2023/11/21 00:55:46;;;;;;;;;;;;;;;;;;5030072;28;89515;-61
2023/11/21 00:58:11;;;;;;;;;;;;;;;;;;5029915;28;89754;-61
2023/11/21 01:00:39;;;;;;;;;;;;;;;;;;5030583;28;89518;-62
2023/11/21 01:03:04;;;;;;;;;;;;;;;;;;5006647;27;89088;-61
2023/11/21 01:05:29;;;;;;;;;;;;;;;;;;4993181;28;89524;-62
2023/11/21 01:07:55;;;;;;;;;;;;;;;;;;4990302;28;89046;-61
2023/11/21 01:10:20;;;;;;;;;;;;;;;;;;4990652;28;89447;-62
2023/11/21 01:12:45;;;;;;;;;;;;;;;;;;4989973;28;90352;-62
2023/11/21 01:15:12;;;;;;;;;;;;;;;;;;4990049;28;89521;-62
2023/11/21 01:17:38;;;;;;;;;;;;;;;;;;5009141;28;89356;-62
2023/11/21 01:20:06;;;;;;;;;;;;;;;;;;5009429;28;90252;-62
2023/11/21 01:22:31;;;;;;;;;;;;;;;;;;4993529;28;89133;-62
2023/11/21 01:24:57;;;;;;;;;;;;;;;;;;4992174;28;89494;-62
2023/11/21 01:27:23;;;;;;;;;;;;;;;;;;4989652;28;90650;-61
2023/11/21 01:29:48;;;;;;;;;;;;;;;;;;4989304;28;90655;-61
2023/11/21 01:32:13;;;;;;;;;;;;;;;;;;4989491;28;89380;-61
2023/11/21 01:34:38;;;;;;;;;;;;;;;;;;4990221;28;89675;-62
2023/11/21 01:37:05;;;;;;;;;;;;;;;;;;4990250;28;89626;-61
2023/11/21 01:39:31;;;;;;;;;;;;;;;;;;4999714;28;89316;-61
2023/11/21 01:41:58;;;;;;;;;;;;;;;;;;5009074;28;89342;-61
2023/11/21 01:44:24;;;;;;;;;;;;;;;;;;5009024;28;89711;-61
2023/11/21 01:46:50;;;;;;;;;;;;;;;;;;5016277;28;90225;-61
2023/11/21 01:49:17;;;;;;;;;;;;;;;;;;5029213;27;89897;-62
2023/11/21 01:51:43;;;;;;;;;;;;;;;;;;5028747;28;90256;-61
2023/11/21 01:54:09;;;;;;;;;;;;;;;;;;5030139;27;89422;-61
2023/11/21 01:56:34;;;;;;;;;;;;;;;;;;5029927;28;89804;-61
2023/11/21 01:58:59;;;;;;;;;;;;;;;;;;5029434;27;89028;-62
2023/11/21 02:01:26;;;;;;;;;;;;;;;;;;5029183;28;89934;-61
2023/11/21 02:03:51;;;;;;;;;;;;;;;;;;5029007;27;90909;-62
2023/11/21 02:06:17;;;;;;;;;;;;;;;;;;5013399;28;89965;-62
2023/11/21 02:08:44;;;;;;;;;;;;;;;;;;5007914;28;89504;-62
2023/11/21 02:11:09;;;;;;;;;;;;;;;;;;5008715;28;89424;-61
2023/11/21 02:13:34;;;;;;;;;;;;;;;;;;5009242;28;88973;-61
2023/11/21 02:15:59;;;;;;;;;;;;;;;;;;4997935;28;90636;-61
2023/11/21 02:18:25;;;;;;;;;;;;;;;;;;4988844;28;89319;-62
2023/11/21 02:20:51;;;;;;;;;;;;;;;;;;4988557;28;89316;-62
2023/11/21 02:23:16;;;;;;;;;;;;;;;;;;4988538;28;90866;-62
2023/11/21 02:25:42;;;;;;;;;;;;;;;;;;4988623;28;89293;-62
2023/11/21 02:28:07;;;;;;;;;;;;;;;;;;4992216;28;89124;-62
2023/11/21 02:30:32;;;;;;;;;;;;;;;;;;4988372;28;89244;-62
2023/11/21 02:32:58;;;;;;;;;;;;;;;;;;5016021;28;89486;-62
2023/11/21 02:35:25;;;;;;;;;;;;;;;;;;5028622;28;90304;-61
2023/11/21 02:37:50;;;;;;;;;;;;;;;;;;5028663;28;90117;-61
2023/11/21 02:40:20;;;;;;;;;;;;;;;;;;5028518;28;89263;-61
2023/11/21 02:42:47;;;;;;;;;;;;;;;;;;5028900;28;89007;-61
2023/11/21 02:45:12;;;;;;;;;;;;;;;;;;5013214;28;89392;-62
2023/11/21 02:47:38;;;;;;;;;;;;;;;;;;5019653;28;89652;-62
2023/11/21 02:50:04;;;;;;;;;;;;;;;;;;5031140;28;90135;-62
2023/11/21 02:52:29;;;;;;;;;;;;;;;;;;5028263;27;89473;-61
2023/11/21 02:54:54;;;;;;;;;;;;;;;;;;5026980;28;90743;-61
2023/11/21 02:57:19;;;;;;;;;;;;;;;;;;5007961;28;90193;-61
2023/11/21 02:59:45;;;;;;;;;;;;;;;;;;5008236;28;88961;-61
2023/11/21 03:02:10;;;;;;;;;;;;;;;;;;5008475;28;89486;-61
2023/11/21 03:04:35;;;;;;;;;;;;;;;;;;5007748;28;89965;-61
2023/11/21 03:07:00;;;;;;;;;;;;;;;;;;5007802;28;89468;-61
2023/11/21 03:09:26;;;;;;;;;;;;;;;;;;5007579;28;89498;-61
2023/11/21 03:11:52;;;;;;;;;;;;;;;;;;5011353;28;89196;-61
2023/11/21 03:14:17;;;;;;;;;;;;;;;;;;5007288;28;90527;-62
2023/11/21 03:16:44;;;;;;;;;;;;;;;;;;5007863;28;89816;-61
2023/11/21 03:19:09;;;;;;;;;;;;;;;;;;5008253;28;90177;-61
2023/11/21 03:21:35;;;;;;;;;;;;;;;;;;5008412;28;90360;-61
2023/11/21 03:24:00;;;;;;;;;;;;;;;;;;5007244;28;89408;-62
2023/11/21 03:26:25;;;;;;;;;;;;;;;;;;5007605;28;89789;-62
2023/11/21 03:28:53;;;;;;;;;;;;;;;;;;5007171;28;89625;-62
2023/11/21 03:31:19;;;;;;;;;;;;;;;;;;5007568;28;89748;-62
2023/11/21 03:33:45;;;;;;;;;;;;;;;;;;5010541;28;89411;-62
2023/11/21 03:36:11;;;;;;;;;;;;;;;;;;5008324;28;90284;-61
2023/11/21 03:38:36;;;;;;;;;;;;;;;;;;5008575;28;89034;-61
2023/11/21 03:41:02;;;;;;;;;;;;;;;;;;5007698;28;89521;-61
2023/11/21 03:43:27;;;;;;;;;;;;;;;;;;5006752;28;90327;-62
2023/11/21 03:45:52;;;;;;;;;;;;;;;;;;5007983;28;89774;-62
2023/11/21 03:48:17;;;;;;;;;;;;;;;;;;5024321;28;89541;-61
2023/11/21 03:50:42;;;;;;;;;;;;;;;;;;5026962;28;89705;-61
2023/11/21 03:53:08;;;;;;;;;;;;;;;;;;5027782;28;89723;-61
2023/11/21 03:55:33;;;;;;;;;;;;;;;;;;5029553;28;89585;-62
2023/11/21 03:57:58;;;;;;;;;;;;;;;;;;5028082;28;89586;-62
2023/11/21 04:00:24;;;;;;;;;;;;;;;;;;5027566;27;90580;-61
2023/11/21 04:02:51;;;;;;;;;;;;;;;;;;5026865;28;89584;-61
2023/11/21 04:05:16;;;;;;;;;;;;;;;;;;5026922;27;89267;-61
2023/11/21 04:07:42;;;;;;;;;;;;;;;;;;5021048;28;89716;-61
2023/11/21 04:10:12;;;;;;;;;;;;;;;;;;5007289;28;89274;-62
2023/11/21 04:12:37;;;;;;;;;;;;;;;;;;5007986;28;89349;-62
2023/11/21 04:15:03;;;;;;;;;;;;;;;;;;5009932;28;89495;-62
2023/11/21 04:17:28;;;;;;;;;;;;;;;;;;5007228;28;89574;-61
2023/11/21 04:19:53;;;;;;;;;;;;;;;;;;5007018;28;89510;-62
2023/11/21 04:22:19;;;;;;;;;;;;;;;;;;5006777;28;89391;-61
2023/11/21 04:24:44;;;;;;;;;;;;;;;;;;5007232;28;89337;-62
2023/11/21 04:27:09;;;;;;;;;;;;;;;;;;5019421;28;90626;-62
2023/11/21 04:29:34;;;;;;;;;;;;;;;;;;5026418;28;89381;-62
2023/11/21 04:32:00;;;;;;;;;;;;;;;;;;5029867;28;89028;-62
2023/11/21 04:34:25;;;;;;;;;;;;;;;;;;5031206;28;89959;-62
2023/11/21 04:36:51;;;;;;;;;;;;;;;;;;5033425;28;89263;-62
2023/11/21 04:39:16;;;;;;;;;;;;;;;;;;5030584;28;89477;-62
2023/11/21 04:41:42;;;;;;;;;;;;;;;;;;5030224;28;89095;-61
2023/11/21 04:44:07;;;;;;;;;;;;;;;;;;5030638;28;89073;-61
2023/11/21 04:46:32;;;;;;;;;;;;;;;;;;5030877;28;89783;-61
2023/11/21 04:48:58;;;;;;;;;;;;;;;;;;5030862;28;89709;-61
2023/11/21 04:51:23;;;;;;;;;;;;;;;;;;5030788;28;89727;-61
2023/11/21 04:53:48;;;;;;;;;;;;;;;;;;5023211;27;89905;-61
2023/11/21 04:56:14;;;;;;;;;;;;;;;;;;5009736;28;89217;-61
2023/11/21 04:58:39;;;;;;;;;;;;;;;;;;5013048;28;89262;-61
2023/11/21 05:01:05;;;;;;;;;;;;;;;;;;5009958;28;89409;-61
2023/11/21 05:03:30;;;;;;;;;;;;;;;;;;5010197;28;89569;-62
2023/11/21 05:05:55;;;;;;;;;;;;;;;;;;5010690;28;89833;-62
2023/11/21 05:08:22;;;;;;;;;;;;;;;;;;5009081;28;90188;-61
2023/11/21 05:10:48;;;;;;;;;;;;;;;;;;5010198;28;88907;-61
2023/11/21 05:13:17;;;;;;;;;;;;;;;;;;5010475;28;90653;-61
2023/11/21 05:15:42;;;;;;;;;;;;;;;;;;5009774;28;90312;-62
2023/11/21 05:18:07;;;;;;;;;;;;;;;;;;5009824;28;89043;-67
2023/11/21 05:20:33;;;;;;;;;;;;;;;;;;5004204;28;89595;-62
2023/11/21 05:22:58;;;;;;;;;;;;;;;;;;4998503;28;89251;-63
2023/11/21 05:25:24;;;;;;;;;;;;;;;;;;4996696;28;91131;-61
2023/11/21 05:27:49;;;;;;;;;;;;;;;;;;4996459;28;90041;-61
2023/11/21 05:30:15;;;;;;;;;;;;;;;;;;4993688;28;89405;-61
2023/11/21 05:32:43;;;;;;;;;;;;;;;;;;4996372;28;89795;-61
2023/11/21 05:35:12;;;;;;;;;;;;;;;;;;5000279;28;90522;-61
2023/11/21 05:37:38;;;;;;;;;;;;;;;;;;4998558;28;89565;-61
2023/11/21 05:40:05;;;;;;;;;;;;;;;;;;4994491;28;90652;-62
2023/11/21 05:42:31;;;;;;;;;;;;;;;;;;5001757;28;89947;-62
2023/11/21 05:44:59;;;;;;;;;;;;;;;;;;5000598;28;89838;-61
2023/11/21 05:47:26;;;;;;;;;;;;;;;;;;5000411;28;89935;-61
2023/11/21 05:49:51;;;;;;;;;;;;;;;;;;4998237;28;89627;-62
2023/11/21 05:52:17;;;;;;;;;;;;;;;;;;4996063;28;89768;-62
2023/11/21 05:54:42;;;;;;;;;;;;;;;;;;4993277;28;90599;-61
2023/11/21 05:57:08;;;;;;;;;;;;;;;;;;5000440;28;89355;-61
2023/11/21 05:59:34;;;;;;;;;;;;;;;;;;4993419;28;89723;-62
2023/11/21 06:01:59;;;;;;;;;;;;;;;;;;4997113;28;89640;-61
2023/11/21 06:04:24;;;;;;;;;;;;;;;;;;4998118;28;89480;-62
2023/11/21 06:06:50;;;;;;;;;;;;;;;;;;4996561;28;89254;-62
2023/11/21 06:09:16;;;;;;;;;;;;;;;;;;4991632;28;90572;-61
2023/11/21 06:11:41;;;;;;;;;;;;;;;;;;4999088;28;89634;-61
2023/11/21 06:14:08;;;;;;;;;;;;;;;;;;4996200;28;90305;-61
2023/11/21 06:16:33;;;;;;;;;;;;;;;;;;4996330;28;88993;-62
2023/11/21 06:18:58;;;;;;;;;;;;;;;;;;5001230;28;89518;-62
2023/11/21 06:21:23;;;;;;;;;;;;;;;;;;4998692;28;89708;-62
2023/11/21 06:23:49;;;;;;;;;;;;;;;;;;4999118;28;89270;-62
2023/11/21 06:26:14;;;;;;;;;;;;;;;;;;4994282;28;89123;-61
2023/11/21 06:28:39;;;;;;;;;;;;;;;;;;4996647;28;89195;-61
2023/11/21 06:31:05;;;;;;;;;;;;;;;;;;4999920;28;90102;-62
2023/11/21 06:33:31;;;;;;;;;;;;;;;;;;4996986;28;90048;-62
2023/11/21 06:35:56;;;;;;;;;;;;;;;;;;4995911;28;89119;-61
2023/11/21 06:38:21;;;;;;;;;;;;;;;;;;4997165;28;89582;-62
2023/11/21 06:40:46;;;;;;;;;;;;;;;;;;4999819;28;90354;-62
2023/11/21 06:43:12;;;;;;;;;;;;;;;;;;4992619;28;89802;-61
2023/11/21 06:45:37;;;;;;;;;;;;;;;;;;5002083;28;90104;-62
2023/11/21 06:48:02;;;;;;;;;;;;;;;;;;4999762;28;90635;-62
2023/11/21 06:50:28;;;;;;;;;;;;;;;;;;5032630;27;89810;-61
2023/11/21 06:52:53;;;;;;;;;;;;;;;;;;4993387;28;89016;-61
2023/11/21 06:55:18;;;;;;;;;;;;;;;;;;4997961;28;89575;-61
2023/11/21 06:57:44;;;;;;;;;;;;;;;;;;4997611;28;90904;-62
2023/11/21 07:00:09;;;;;;;;;;;;;;;;;;4998216;28;89219;-62
2023/11/21 07:02:35;;;;;;;;;;;;;;;;;;4997782;28;91020;-62
2023/11/21 07:05:01;;;;;;;;;;;;;;;;;;4994286;28;91432;-62
2023/11/21 07:07:27;;;;;;;;;;;;;;;;;;5002753;28;89295;-62
2023/11/21 07:09:52;;;;;;;;;;;;;;;;;;4994597;28;90244;-61
2023/11/21 07:12:17;;;;;;;;;;;;;;;;;;4997061;28;89789;-62
2023/11/21 07:14:44;;;;;;;;;;;;;;;;;;5001349;28;90213;-62
2023/11/21 07:17:09;;;;;;;;;;;;;;;;;;4999666;28;90987;-62
2023/11/21 07:19:35;;;;;;;;;;;;;;;;;;4997474;28;89372;-62
2023/11/21 07:22:01;;;;;;;;;;;;;;;;;;4994245;28;89330;-61
2023/11/21 07:24:26;;;;;;;;;;;;;;;;;;4995679;28;89942;-62
2023/11/21 07:26:56;;;;;;;;;;;;;;;;;;4995431;28;90444;-61
2023/11/21 07:29:21;;;;;;;;;;;;;;;;;;5005439;28;90156;-62
2023/11/21 07:31:46;;;;;;;;;;;;;;;;;;4994517;28;90413;-62
2023/11/21 07:34:12;;;;;;;;;;;;;;;;;;4996969;28;90349;-61
2023/11/21 07:36:37;;;;;;;;;;;;;;;;;;4992801;28;89697;-61
2023/11/21 07:39:02;;;;;;;;;;;;;;;;;;4997555;28;89516;-61
2023/11/21 07:41:29;;;;;;;;;;;;;;;;;;4997618;28;90660;-61
2023/11/21 07:43:55;;;;;;;;;;;;;;;;;;4993764;28;90006;-61
2023/11/21 07:46:22;;;;;;;;;;;;;;;;;;4995921;28;90032;-62
2023/11/21 07:48:47;;;;;;;;;;;;;;;;;;4994902;28;89303;-62
2023/11/21 07:51:13;;;;;;;;;;;;;;;;;;5001115;28;89763;-62
2023/11/21 07:53:38;;;;;;;;;;;;;;;;;;4997218;28;89743;-62
2023/11/21 07:56:04;;;;;;;;;;;;;;;;;;4995688;28;90123;-62
2023/11/21 07:58:30;;;;;;;;;;;;;;;;;;4994759;28;91210;-62
2023/11/21 08:00:56;;;;;;;;;;;;;;;;;;4991752;28;89021;-62
2023/11/21 08:03:21;;;;;;;;;;;;;;;;;;4998050;28;90696;-62
2023/11/21 08:05:46;;;;;;;;;;;;;;;;;;4998117;28;90284;-62
2023/11/21 08:08:11;;;;;;;;;;;;;;;;;;5000903;28;90209;-62
2023/11/21 08:10:37;;;;;;;;;;;;;;;;;;5002585;28;89963;-62
2023/11/21 08:13:03;;;;;;;;;;;;;;;;;;5001740;28;89682;-62
2023/11/21 08:15:28;;;;;;;;;;;;;;;;;;5007350;28;92222;-62
2023/11/21 08:17:54;;;;;;;;;;;;;;;;;;5003271;28;90122;-61
2023/11/21 08:20:19;;;;;;;;;;;;;;;;;;4998057;28;90821;-61
2023/11/21 08:22:45;;;;;;;;;;;;;;;;;;4997191;28;91721;-63
2023/11/21 08:25:11;;;;;;;;;;;;;;;;;;4997766;28;89958;-63
2023/11/21 08:27:36;;;;;;;;;;;;;;;;;;5001055;28;89176;-63
2023/11/21 08:30:03;;;;;;;;;;;;;;;;;;5001907;28;91120;-65
2023/11/21 08:32:30;;;;;;;;;;;;;;;;;;5003419;28;90370;-63
2023/11/21 08:34:55;;;;;;;;;;;;;;;;;;4995565;28;89483;-63
2023/11/21 08:37:21;;;;;;;;;;;;;;;;;;4999509;28;89687;-62
2023/11/21 08:39:48;;;;;;;;;;;;;;;;;;4999044;28;90100;-63
2023/11/21 08:42:14;;;;;;;;;;;;;;;;;;5034446;27;92174;-62
2023/11/21 08:44:39;;;;;;;;;;;;;;;;;;5001342;28;90609;-62
2023/11/21 08:47:05;;;;;;;;;;;;;;;;;;4999459;28;89813;-63
2023/11/21 08:49:31;;;;;;;;;;;;;;;;;;4994834;28;89817;-64
2023/11/21 08:51:59;;;;;;;;;;;;;;;;;;5000934;28;89958;-65
2023/11/21 08:54:25;;;;;;;;;;;;;;;;;;5004532;28;89092;-63
2023/11/21 08:56:51;;;;;;;;;;;;;;;;;;4996708;28;89066;-64
2023/11/21 08:59:16;;;;;;;;;;;;;;;;;;5005442;28;90841;-63
2023/11/21 09:01:41;;;;;;;;;;;;;;;;;;5003848;28;90015;-63
2023/11/21 09:04:06;;;;;;;;;;;;;;;;;;5002595;28;89724;-63
2023/11/21 09:06:31;;;;;;;;;;;;;;;;;;5001339;28;91737;-62
2023/11/21 09:08:57;;;;;;;;;;;;;;;;;;5002111;28;91022;-63
2023/11/21 09:11:23;;;;;;;;;;;;;;;;;;5003150;28;90104;-63
2023/11/21 09:13:48;;;;;;;;;;;;;;;;;;4998007;28;89667;-62
2023/11/21 09:16:15;;;;;;;;;;;;;;;;;;5004675;28;90751;-62
2023/11/21 09:18:40;;;;;;;;;;;;;;;;;;5023576;27;89378;-62
2023/11/21 09:21:06;;;;;;;;;;;;;;;;;;5000051;28;90128;-63
2023/11/21 09:23:31;;;;;;;;;;;;;;;;;;5001555;28;90506;-63
2023/11/21 09:25:57;;;;;;;;;;;;;;;;;;5001595;28;90081;-63
2023/11/21 09:28:22;;;;;;;;;;;;;;;;;;5002635;28;90466;-63
2023/11/21 09:30:50;;;;;;;;;;;;;;;;;;5002118;28;90725;-63
2023/11/21 09:33:16;;;;;;;;;;;;;;;;;;5000871;28;89503;-64
2023/11/21 09:35:43;;;;;;;;;;;;;;;;;;4998931;28;90745;-62
2023/11/21 09:38:10;;;;;;;;;;;;;;;;;;5004623;28;90354;-64
2023/11/21 09:40:37;;;;;;;;;;;;;;;;;;5002468;28;90109;-63
2023/11/21 09:43:07;;;;;;;;;;;;;;;;;;5001163;28;91128;-63
2023/11/21 09:45:35;;;;;;;;;;;;;;;;;;5003508;28;90074;-63
2023/11/21 09:48:00;;;;;;;;;;;;;;;;;;4999008;28;90491;-63
2023/11/21 09:50:26;;;;;;;;;;;;;;;;;;5035642;27;89891;-62
2023/11/21 09:53:04;;;;;;;;;;;;;;;;;;4999157;28;89582;-62
2023/11/21 09:55:30;;;;;;;;;;;;;;;;;;5004026;28;89942;-63
2023/11/21 09:57:58;;;;;;;;;;;;;;;;;;5004892;28;90487;-63
2023/11/21 10:00:23;;;;;;;;;;;;;;;;;;5004942;28;89667;-62
2023/11/21 10:02:49;;;;;;;;;;;;;;;;;;4999031;28;90186;-63
2023/11/21 10:05:15;;;;;;;;;;;;;;;;;;5003201;28;89681;-63
2023/11/21 10:07:43;;;;;;;;;;;;;;;;;;5002435;28;90092;-62
2023/11/21 10:10:09;;;;;;;;;;;;;;;;;;4997067;28;90243;-62
2023/11/21 10:12:35;;;;;;;;;;;;;;;;;;4998177;28;89302;-63
2023/11/21 10:15:02;;;;;;;;;;;;;;;;;;4996231;28;92017;-62
2023/11/21 10:17:30;;;;;;;;;;;;;;;;;;5004416;28;89976;-63
2023/11/21 10:19:57;;;;;;;;;;;;;;;;;;5000047;28;89563;-63
2023/11/21 10:22:23;;;;;;;;;;;;;;;;;;4997988;28;90478;-62
2023/11/21 10:24:48;;;;;;;;;;;;;;;;;;5001994;28;90491;-62
2023/11/21 10:27:13;;;;;;;;;;;;;;;;;;5002254;28;90148;-65
2023/11/21 10:29:39;;;;;;;;;;;;;;;;;;4998160;28;89896;-63
2023/11/21 10:32:05;;;;;;;;;;;;;;;;;;5001576;28;89988;-62
2023/11/21 10:34:30;;;;;;;;;;;;;;;;;;5003279;28;90557;-64
2023/11/21 10:36:57;;;;;;;;;;;;;;;;;;4997434;28;89883;-63
2023/11/21 10:39:27;;;;;;;;;;;;;;;;;;4995143;28;89597;-62
2023/11/21 10:41:52;;;;;;;;;;;;;;;;;;5000987;28;90734;-63
2023/11/21 10:44:21;;;;;;;;;;;;;;;;;;4998302;28;90150;-63
2023/11/21 10:46:50;;;;;;;;;;;;;;;;;;5001401;28;90645;-62
2023/11/21 10:49:19;;;;;;;;;;;;;;;;;;5003567;28;90003;-63
2023/11/21 10:51:45;;;;;;;;;;;;;;;;;;5001921;28;89321;-62
2023/11/21 10:54:12;;;;;;;;;;;;;;;;;;5000243;28;90733;-63
2023/11/21 10:56:40;;;;;;;;;;;;;;;;;;5001501;28;89695;-63
2023/11/21 10:59:07;;;;;;;;;;;;;;;;;;5001758;28;89513;-62
2023/11/21 11:01:33;;;;;;;;;;;;;;;;;;5000914;28;90862;-62
2023/11/21 11:03:58;;;;;;;;;;;;;;;;;;5004077;28;89454;-63
2023/11/21 11:06:25;;;;;;;;;;;;;;;;;;5004188;28;89844;-62
2023/11/21 11:08:51;;;;;;;;;;;;;;;;;;5003328;28;90501;-62
2023/11/21 11:11:18;;;;;;;;;;;;;;;;;;5000459;28;89601;-63
2023/11/21 11:13:45;;;;;;;;;;;;;;;;;;5002345;28;90861;-62
2023/11/21 11:16:12;;;;;;;;;;;;;;;;;;5000400;28;90423;-62
2023/11/21 11:18:37;;;;;;;;;;;;;;;;;;5000372;28;90451;-63
2023/11/21 11:21:41;;;;;;;;;;;;;;;;;;5003543;28;90653;-62
2023/11/21 11:24:19;;;;;;;;;;;;;;;;;;5003344;28;89753;-62
2023/11/21 11:26:50;;;;;;;;;;;;;;;;;;5007533;28;90079;-62
2023/11/21 11:29:26;;;;;;;;;;;;;;;;;;5002595;28;90610;-62
2023/11/21 11:31:54;;;;;;;;;;;;;;;;;;5002791;28;89535;-62
2023/11/21 11:34:38;;;;;;;;;;;;;;;;;;5000291;28;89813;-62
2023/11/21 11:37:05;;;;;;;;;;;;;;;;;;4998111;28;90228;-62
2023/11/21 11:39:36;;;;;;;;;;;;;;;;;;5004027;28;89802;-62
2023/11/21 11:42:04;;;;;;;;;;;;;;;;;;5001638;28;89546;-62
2023/11/21 11:44:51;;;;;;;;;;;;;;;;;;5002912;28;90139;-62
2023/11/21 11:47:16;;;;;;;;;;;;;;;;;;5003580;28;89033;-62
2023/11/21 11:49:56;;;;;;;;;;;;;;;;;;5010302;28;90613;-61
2023/11/21 11:52:35;;;;;;;;;;;;;;;;;;5003672;28;89485;-62
2023/11/21 11:55:01;;;;;;;;;;;;;;;;;;5001947;28;89450;-61
2023/11/21 11:57:29;;;;;;;;;;;;;;;;;;5005479;28;90288;-63
2023/11/21 12:00:12;;;;;;;;;;;;;;;;;;5004569;28;89189;-66
2023/11/21 12:02:38;;;;;;;;;;;;;;;;;;5001862;28;90958;-61
2023/11/21 12:05:12;;;;;;;;;;;;;;;;;;5001257;28;90714;-61
2023/11/21 12:07:48;;;;;;;;;;;;;;;;;;5034651;27;89118;-61
2023/11/21 12:10:14;;;;;;;;;;;;;;;;;;5002515;28;91507;-62
2023/11/21 12:12:50;;;;;;;;;;;;;;;;;;5002016;28;89632;-63
2023/11/21 12:15:16;;;;;;;;;;;;;;;;;;5007066;28;91276;-62
2023/11/21 12:17:43;;;;;;;;;;;;;;;;;;4999280;28;89232;-64
2023/11/21 12:20:14;;;;;;;;;;;;;;;;;;4993053;28;90288;-63
2023/11/21 12:23:00;;;;;;;;;;;;;;;;;;5001435;28;90711;-64
2023/11/21 12:25:29;;;;;;;;;;;;;;;;;;5008387;28;90397;-63
2023/11/21 12:27:54;;;;;;;;;;;;;;;;;;5000441;28;90811;-61
2023/11/21 12:30:21;;;;;;;;;;;;;;;;;;5001026;28;92612;-64
2023/11/21 12:32:51;;;;;;;;;;;;;;;;;;5003255;28;90236;-61
2023/11/21 12:35:19;;;;;;;;;;;;;;;;;;5002086;28;90214;-64
2023/11/21 12:37:44;;;;;;;;;;;;;;;;;;5003122;28;90308;-63
2023/11/21 12:40:15;;;;;;;;;;;;;;;;;;5000314;28;89541;-64
2023/11/21 12:42:51;;;;;;;;;;;;;;;;;;5001971;28;91113;-63
2023/11/21 12:45:17;;;;;;;;;;;;;;;;;;4994295;28;89387;-64
2023/11/21 12:47:43;;;;;;;;;;;;;;;;;;5000596;28;89676;-63
2023/11/21 12:50:14;;;;;;;;;;;;;;;;;;4996990;28;90367;-62
2023/11/21 12:52:39;;;;;;;;;;;;;;;;;;4995242;28;89487;-63
2023/11/21 12:55:07;;;;;;;;;;;;;;;;;;4998021;28;89093;-64
2023/11/21 12:57:33;;;;;;;;;;;;;;;;;;4999834;28;89607;-64
2023/11/21 13:00:00;;;;;;;;;;;;;;;;;;5003914;28;89039;-62
2023/11/21 13:02:30;;;;;;;;;;;;;;;;;;5002013;28;90815;-64
2023/11/21 13:04:58;;;;;;;;;;;;;;;;;;5004008;28;89215;-61
2023/11/21 13:07:24;;;;;;;;;;;;;;;;;;4997558;28;89526;-62
2023/11/21 13:09:51;;;;;;;;;;;;;;;;;;4999136;28;90660;-61
2023/11/21 13:12:18;;;;;;;;;;;;;;;;;;5032629;27;89345;-63
2023/11/21 13:14:46;;;;;;;;;;;;;;;;;;4999971;28;89369;-62
2023/11/21 13:17:12;;;;;;;;;;;;;;;;;;5007324;28;89785;-64
2023/11/21 13:19:37;;;;;;;;;;;;;;;;;;5002056;28;89079;-63
2023/11/21 13:22:04;;;;;;;;;;;;;;;;;;5000478;28;89642;-61
2023/11/21 13:24:29;;;;;;;;;;;;;;;;;;5004623;28;89855;-63
2023/11/21 13:26:54;;;;;;;;;;;;;;;;;;5002947;28;89594;-63
2023/11/21 13:29:20;;;;;;;;;;;;;;;;;;5005072;28;89769;-63
2023/11/21 13:31:46;;;;;;;;;;;;;;;;;;5003467;28;91236;-61
2023/11/21 13:34:14;;;;;;;;;;;;;;;;;;5001839;28;89558;-63
2023/11/21 13:36:42;;;;;;;;;;;;;;;;;;5007118;28;89801;-61
2023/11/21 13:39:11;;;;;;;;;;;;;;;;;;5003703;28;90939;-63
2023/11/21 13:41:38;;;;;;;;;;;;;;;;;;5000022;28;90352;-62
2023/11/21 13:44:14;;;;;;;;;;;;;;;;;;5005652;28;89088;-62
2023/11/21 13:46:39;;;;;;;;;;;;;;;;;;5005831;28;89096;-62
2023/11/21 13:49:09;;;;;;;;;;;;;;;;;;5002688;28;89709;-61
2023/11/21 13:51:41;;;;;;;;;;;;;;;;;;4999825;28;90079;-62
2023/11/21 13:54:09;;;;;;;;;;;;;;;;;;5002736;28;89684;-62
2023/11/21 13:56:35;;;;;;;;;;;;;;;;;;5004354;28;89482;-62
2023/11/21 13:59:09;;;;;;;;;;;;;;;;;;5005958;28;89286;-63
2023/11/21 14:06:51;;;;;;;;;;;;;;;;;;5004919;28;89586;-62
2023/11/21 14:09:25;;;;;;;;;;;;;;;;;;5004554;28;89916;-62
2023/11/21 14:11:55;;;;;;;;;;;;;;;;;;5001412;28;90630;-61
2023/11/21 14:14:21;;;;;;;;;;;;;;;;;;5005559;28;90331;-63
2023/11/21 14:16:46;;;;;;;;;;;;;;;;;;4997602;28;91134;-64
2023/11/21 14:19:17;;;;;;;;;;;;;;;;;;5007947;28;89617;-62
2023/11/21 14:21:44;;;;;;;;;;;;;;;;;;5004455;28;89008;-63
2023/11/21 14:24:09;;;;;;;;;;;;;;;;;;5006872;28;89181;-63
2023/11/21 14:26:35;;;;;;;;;;;;;;;;;;5002816;28;89086;-63
2023/11/21 14:29:00;;;;;;;;;;;;;;;;;;5004518;28;90646;-63
2023/11/21 14:31:27;;;;;;;;;;;;;;;;;;5002795;28;90374;-64
2023/11/21 14:33:52;;;;;;;;;;;;;;;;;;5000053;28;89606;-62
2023/11/21 14:36:17;;;;;;;;;;;;;;;;;;4999711;28;90439;-63
2023/11/21 14:38:43;;;;;;;;;;;;;;;;;;5001157;28;90110;-62
2023/11/21 14:41:09;;;;;;;;;;;;;;;;;;5001925;28;89150;-63
2023/11/21 14:43:35;;;;;;;;;;;;;;;;;;5000833;28;92013;-63
2023/11/21 14:46:01;;;;;;;;;;;;;;;;;;4996246;28;91169;-64
2023/11/21 14:48:42;;;;;;;;;;;;;;;;;;4998955;28;89663;-64
2023/11/21 14:53:53;;;;;;;;;;;;;;;;;;5001976;28;89095;-63
2023/11/21 14:56:26;;;;;;;;;;;;;;;;;;5002958;28;90168;-61
2023/11/21 14:58:52;;;;;;;;;;;;;;;;;;4999728;28;90290;-62
2023/11/21 15:01:26;;;;;;;;;;;;;;;;;;5001477;28;90644;-63
2023/11/21 15:03:52;;;;;;;;;;;;;;;;;;5000394;28;90875;-64
2023/11/21 15:06:29;;;;;;;;;;;;;;;;;;5006260;28;92346;-61
2023/11/21 15:11:33;;;;;;;;;;;;;;;;;;5000799;28;89255;-61
2023/11/21 15:14:00;;;;;;;;;;;;;;;;;;5001877;28;90047;-62
2023/11/21 15:16:27;;;;;;;;;;;;;;;;;;5003745;28;91470;-62
2023/11/21 15:18:56;;;;;;;;;;;;;;;;;;5000012;28;90326;-61
2023/11/21 15:21:22;;;;;;;;;;;;;;;;;;5005568;28;89046;-61
2023/11/21 15:23:47;;;;;;;;;;;;;;;;;;4996923;28;90084;-63
2023/11/21 15:26:14;;;;;;;;;;;;;;;;;;5002429;28;90145;-62
2023/11/21 15:28:39;;;;;;;;;;;;;;;;;;4999363;28;90017;-64
2023/11/21 15:31:04;;;;;;;;;;;;;;;;;;4999360;28;89752;-62
2023/11/21 15:33:30;;;;;;;;;;;;;;;;;;4994801;28;90570;-63
2023/11/21 15:35:55;;;;;;;;;;;;;;;;;;5000405;28;92675;-62
2023/11/21 15:38:20;;;;;;;;;;;;;;;;;;4997398;28;94595;-62
2023/11/21 15:40:46;;;;;;;;;;;;;;;;;;5002267;28;90170;-61
2023/11/21 15:43:12;;;;;;;;;;;;;;;;;;4996490;28;90634;-68
2023/11/21 15:45:38;;;;;;;;;;;;;;;;;;5001231;28;90072;-63
2023/11/21 15:48:05;;;;;;;;;;;;;;;;;;4993737;28;89724;-61
2023/11/21 15:50:31;;;;;;;;;;;;;;;;;;4996762;28;91307;-63
2023/11/21 15:52:57;;;;;;;;;;;;;;;;;;5000944;28;89169;-62
2023/11/21 15:55:23;;;;;;;;;;;;;;;;;;5000305;28;89438;-62
2023/11/21 15:57:49;;;;;;;;;;;;;;;;;;5000300;28;89146;-63
2023/11/21 16:00:19;;;;;;;;;;;;;;;;;;4999643;28;90472;-63
2023/11/21 16:02:45;;;;;;;;;;;;;;;;;;4999440;27;91209;-61
2023/11/21 16:05:13;;;;;;;;;;;;;;;;;;5000197;28;89594;-62
2023/11/21 16:07:39;;;;;;;;;;;;;;;;;;4998289;28;89842;-61
2023/11/21 16:10:06;;;;;;;;;;;;;;;;;;4998144;28;91171;-62
2023/11/21 16:12:32;;;;;;;;;;;;;;;;;;5002127;28;89568;-64
2023/11/21 16:14:57;;;;;;;;;;;;;;;;;;4996439;28;89617;-62
2023/11/21 16:17:23;;;;;;;;;;;;;;;;;;5000846;28;90415;-63
2023/11/21 16:19:48;;;;;;;;;;;;;;;;;;4996140;28;89313;-64
2023/11/21 16:22:14;;;;;;;;;;;;;;;;;;4999657;28;90208;-64
2023/11/21 16:24:39;;;;;;;;;;;;;;;;;;4994432;28;90108;-63
2023/11/21 16:27:05;;;;;;;;;;;;;;;;;;5004839;28;90528;-64
2023/11/21 16:29:32;;;;;;;;;;;;;;;;;;5004746;28;90824;-64
2023/11/21 16:31:58;;;;;;;;;;;;;;;;;;5005696;28;89945;-65
2023/11/21 16:34:23;;;;;;;;;;;;;;;;;;5000458;28;90068;-64
2023/11/21 16:36:51;;;;;;;;;;;;;;;;;;5002794;28;90534;-63
2023/11/21 16:39:18;;;;;;;;;;;;;;;;;;4999898;28;89509;-64
2023/11/21 16:41:44;;;;;;;;;;;;;;;;;;5000901;28;91147;-63
2023/11/21 16:44:13;;;;;;;;;;;;;;;;;;5000674;28;90192;-64
2023/11/21 16:46:39;;;;;;;;;;;;;;;;;;4998657;28;90888;-64
2023/11/21 16:49:04;;;;;;;;;;;;;;;;;;5003909;28;90963;-61
2023/11/21 16:51:30;;;;;;;;;;;;;;;;;;5000000;28;90290;-61
2023/11/21 16:53:56;;;;;;;;;;;;;;;;;;5006516;28;90009;-63